Time;durP1;ratioP1;P1;durP2;ratioP2;P2;SDS_P1;SDS_P2;PMS_P1;PMS_P2;Temp;Humidity;BMP_temperature;BMP_pressure;BME280_temperature;BME280_humidity;BME280_pressure;Samples;Min_cycle;Max_cycle;Signal;HPM_P1;HPM_P2
2023/03/14 00:01:14;;;;;;;1.23;1.10;;;10.60;99.90;;;;;;5025180;28;20574;-69
2023/03/14 00:03:40;;;;;;;1.80;0.97;;;10.60;99.90;;;;;;5035376;28;20477;-70
2023/03/14 00:06:07;;;;;;;4.30;1.47;;;10.70;99.90;;;;;;5042102;28;20437;-69
2023/03/14 00:08:32;;;;;;;2.53;1.40;;;10.70;99.90;;;;;;5003971;28;20216;-70
2023/03/14 00:11:03;;;;;;;3.27;1.13;;;10.60;99.90;;;;;;5042633;28;20459;-71
2023/03/14 00:13:28;;;;;;;3.33;2.00;;;10.60;99.90;;;;;;4999802;28;20220;-70
2023/03/14 00:15:54;;;;;;;1.60;1.00;;;10.60;99.90;;;;;;5021055;28;20454;-70
2023/03/14 00:18:20;;;;;;;5.10;1.03;;;10.60;99.90;;;;;;5022672;28;20222;-70
2023/03/14 00:20:46;;;;;;;6.70;1.30;;;10.60;99.90;;;;;;5016071;28;20231;-70
2023/03/14 00:23:11;;;;;;;1.33;1.23;;;10.70;99.90;;;;;;5010261;28;20299;-71
2023/03/14 00:25:37;;;;;;;1.30;0.97;;;10.60;99.90;;;;;;5017588;28;20354;-70
2023/03/14 00:28:03;;;;;;;6.20;0.97;;;10.60;99.90;;;;;;5004362;28;20228;-70
2023/03/14 00:30:28;;;;;;;1.67;0.90;;;10.60;99.90;;;;;;5005495;28;20247;-70
2023/03/14 00:32:54;;;;;;;1.50;0.80;;;10.60;99.90;;;;;;5021463;28;20315;-69
2023/03/14 00:35:20;;;;;;;4.37;1.27;;;10.70;99.90;;;;;;5005446;28;20270;-69
2023/03/14 00:37:45;;;;;;;1.70;1.20;;;10.70;99.90;;;;;;5012597;28;20235;-70
2023/03/14 00:40:11;;;;;;;4.90;1.13;;;10.60;99.90;;;;;;5022381;28;20306;-69
2023/03/14 00:42:37;;;;;;;3.17;1.20;;;10.70;99.90;;;;;;5018006;28;20219;-70
2023/03/14 00:45:03;;;;;;;1.30;0.90;;;10.70;99.90;;;;;;5005101;28;20598;-69
2023/03/14 00:47:29;;;;;;;3.40;1.03;;;10.70;99.90;;;;;;5009087;28;20223;-69
2023/03/14 00:49:55;;;;;;;1.30;1.07;;;10.70;99.90;;;;;;5020956;28;20467;-71
2023/03/14 00:52:20;;;;;;;2.30;1.03;;;10.70;99.90;;;;;;5021342;28;20307;-70
2023/03/14 00:54:46;;;;;;;4.07;1.00;;;10.60;99.90;;;;;;4999057;28;21707;-70
2023/03/14 00:57:11;;;;;;;3.67;0.90;;;10.60;99.90;;;;;;5020031;28;20281;-71
2023/03/14 00:59:37;;;;;;;0.87;0.80;;;10.60;99.90;;;;;;5018486;28;20222;-70
2023/03/14 01:02:03;;;;;;;2.30;1.00;;;10.50;99.90;;;;;;5006859;28;20212;-70
2023/03/14 01:04:30;;;;;;;1.30;1.10;;;10.50;99.90;;;;;;4999857;28;20266;-71
2023/03/14 01:06:55;;;;;;;2.60;1.40;;;10.50;99.90;;;;;;5021569;28;20232;-69
2023/03/14 01:09:21;;;;;;;2.53;1.10;;;10.50;99.90;;;;;;5033264;28;20479;-70
2023/03/14 01:11:48;;;;;;;4.33;1.00;;;10.60;99.90;;;;;;5000082;28;20225;-70
2023/03/14 01:14:14;;;;;;;2.50;1.30;;;10.50;99.90;;;;;;5018450;28;20219;-70
2023/03/14 01:16:40;;;;;;;3.00;1.10;;;10.50;99.90;;;;;;5016759;28;20543;-70
2023/03/14 01:19:05;;;;;;;2.30;1.10;;;10.50;99.90;;;;;;5019726;28;20263;-70
2023/03/14 01:21:33;;;;;;;2.00;1.17;;;10.50;99.90;;;;;;5005005;28;20321;-69
2023/03/14 01:24:00;;;;;;;4.90;1.57;;;10.50;99.90;;;;;;5006674;28;20273;-70
2023/03/14 01:26:29;;;;;;;1.27;1.10;;;10.40;99.90;;;;;;5014120;28;20469;-68
2023/03/14 01:28:55;;;;;;;1.83;1.03;;;10.40;99.90;;;;;;5018542;28;20454;-71
2023/03/14 01:31:23;;;;;;;2.30;1.17;;;10.50;99.90;;;;;;5006606;28;20452;-69
2023/03/14 01:33:48;;;;;;;3.37;1.30;;;10.40;99.90;;;;;;5016224;28;20505;-70
2023/03/14 01:36:14;;;;;;;1.87;1.30;;;10.40;99.90;;;;;;5021998;28;20456;-70
2023/03/14 01:38:41;;;;;;;3.60;1.40;;;10.40;99.90;;;;;;5000729;28;20216;-69
2023/03/14 01:41:16;;;;;;;3.17;1.10;;;10.40;99.90;;;;;;5018083;28;20489;-70
2023/03/14 01:43:43;;;;;;;4.10;1.00;;;10.40;99.90;;;;;;5035659;28;20806;-70
2023/03/14 01:46:45;;;;;;;2.30;1.20;;;10.40;99.90;;;;;;5026997;28;20462;-71
2023/03/14 01:49:17;;;;;;;1.83;1.03;;;10.40;99.90;;;;;;5009386;28;20459;-70
2023/03/14 01:51:58;;;;;;;4.43;0.87;;;10.40;99.90;;;;;;5019468;28;20534;-71
2023/03/14 01:54:33;;;;;;;4.17;1.00;;;10.40;99.90;;;;;;5018895;28;20447;-72
2023/03/14 01:57:03;;;;;;;0.90;0.80;;;10.40;99.90;;;;;;5022756;28;20454;-70
2023/03/14 01:59:31;;;;;;;2.20;1.30;;;10.40;99.90;;;;;;5020605;28;20470;-70
2023/03/14 02:01:57;;;;;;;2.27;1.23;;;10.30;99.90;;;;;;5013575;28;20459;-71
2023/03/14 02:04:25;;;;;;;2.20;0.90;;;10.30;99.90;;;;;;5008255;28;20460;-69
2023/03/14 02:07:05;;;;;;;1.43;0.93;;;10.30;99.90;;;;;;5001503;28;20525;-71
2023/03/14 02:09:38;;;;;;;3.00;1.20;;;10.40;99.90;;;;;;5020072;28;20462;-71
2023/03/14 02:12:04;;;;;;;3.87;1.00;;;10.40;99.90;;;;;;5020261;28;20496;-70
2023/03/14 02:14:49;;;;;;;1.50;1.10;;;10.30;99.90;;;;;;5020647;28;20511;-71
2023/03/14 02:17:28;;;;;;;1.57;1.07;;;10.30;99.90;;;;;;5006120;28;20470;-71
2023/03/14 02:20:51;;;;;;;2.93;1.27;;;10.20;99.90;;;;;;5008316;28;20526;-69
2023/03/14 02:23:26;;;;;;;1.10;1.00;;;10.30;99.90;;;;;;5019831;28;20473;-70
2023/03/14 02:26:01;;;;;;;1.33;1.23;;;10.20;99.90;;;;;;5020924;28;20469;-70
2023/03/14 02:28:26;;;;;;;1.20;1.10;;;10.20;99.90;;;;;;5019750;28;20956;-70
2023/03/14 02:30:56;;;;;;;4.60;1.27;;;10.20;99.90;;;;;;5019670;28;20443;-70
2023/03/14 02:33:23;;;;;;;2.23;2.03;;;10.20;99.90;;;;;;5002121;28;20473;-71
2023/03/14 02:36:01;;;;;;;1.30;1.20;;;10.20;99.90;;;;;;5021647;28;20241;-70
2023/03/14 02:38:47;;;;;;;2.83;1.90;;;10.20;99.90;;;;;;5022281;28;20460;-70
2023/03/14 02:41:14;;;;;;;3.37;1.33;;;10.20;99.90;;;;;;5025112;28;20447;-68
2023/03/14 02:43:45;;;;;;;6.37;1.77;;;10.10;99.90;;;;;;5023966;28;20454;-70
2023/03/14 02:46:14;;;;;;;2.10;1.10;;;10.10;99.90;;;;;;5020889;28;20981;-70
2023/03/14 02:48:47;;;;;;;2.53;1.17;;;10.10;99.90;;;;;;5020660;28;20461;-69
2023/03/14 02:51:14;;;;;;;2.73;1.53;;;10.10;99.90;;;;;;5026183;28;20459;-67
2023/03/14 02:53:41;;;;;;;1.80;0.90;;;10.20;99.90;;;;;;5017280;28;20459;-70
2023/03/14 02:56:10;;;;;;;1.90;1.20;;;10.10;99.90;;;;;;5006021;28;21007;-71
2023/03/14 02:58:37;;;;;;;2.63;1.20;;;10.10;99.90;;;;;;5008212;28;21062;-70
2023/03/14 03:01:19;;;;;;;3.53;1.60;;;10.10;99.90;;;;;;5023396;28;20473;-70
2023/03/14 03:03:45;;;;;;;2.23;1.20;;;10.20;99.90;;;;;;5015470;28;20459;-71
2023/03/14 03:06:11;;;;;;;0.80;0.80;;;10.20;99.90;;;;;;5011309;28;20589;-71
2023/03/14 03:08:37;;;;;;;1.43;1.10;;;10.20;99.90;;;;;;5009239;28;20998;-70
2023/03/14 03:11:04;;;;;;;2.37;1.20;;;10.10;99.90;;;;;;5009440;28;20461;-70
2023/03/14 03:13:32;;;;;;;2.17;1.17;;;10.10;99.90;;;;;;5006808;28;20462;-70
2023/03/14 03:16:00;;;;;;;1.47;1.37;;;10.20;99.90;;;;;;5023799;28;20467;-70
2023/03/14 03:18:25;;;;;;;1.67;1.10;;;10.20;99.90;;;;;;5007919;28;20450;-71
2023/03/14 03:20:51;;;;;;;1.30;0.87;;;10.20;99.90;;;;;;5021307;28;20258;-70
2023/03/14 03:23:17;;;;;;;3.63;1.33;;;10.20;99.90;;;;;;5026907;28;20323;-71
2023/03/14 03:25:51;;;;;;;4.63;1.50;;;10.10;99.90;;;;;;5020727;28;20212;-68
2023/03/14 03:28:17;;;;;;;2.30;1.20;;;10.10;99.90;;;;;;5020516;28;20223;-70
2023/03/14 03:30:43;;;;;;;3.43;1.37;;;10.10;99.90;;;;;;5018706;28;20529;-70
2023/03/14 03:33:10;;;;;;;1.77;0.97;;;10.00;99.90;;;;;;5010561;28;20837;-71
2023/03/14 03:35:43;;;;;;;1.43;1.20;;;10.00;99.90;;;;;;5033481;28;20505;-70
2023/03/14 03:38:11;;;;;;;2.93;1.20;;;10.10;99.90;;;;;;5018221;28;20466;-70
2023/03/14 03:40:37;;;;;;;3.40;1.20;;;10.10;99.90;;;;;;5022573;28;20459;-70
2023/03/14 03:43:03;;;;;;;3.93;0.90;;;10.00;99.90;;;;;;5026636;28;20466;-69
2023/03/14 03:45:35;;;;;;;1.80;1.20;;;10.00;99.90;;;;;;5013209;28;20212;-69
2023/03/14 03:48:00;;;;;;;0.57;0.57;;;10.00;99.90;;;;;;5023458;28;20467;-70
2023/03/14 03:50:26;;;;;;;2.83;1.07;;;10.00;99.90;;;;;;5011617;28;20550;-70
2023/03/14 03:52:52;;;;;;;3.17;1.00;;;9.90;99.90;;;;;;5033664;28;20263;-70
2023/03/14 03:55:17;;;;;;;6.10;0.90;;;10.00;99.90;;;;;;5041622;28;20228;-70
2023/03/14 03:57:45;;;;;;;1.70;1.30;;;10.00;99.90;;;;;;5005093;28;20294;-70
2023/03/14 04:00:12;;;;;;;1.53;1.00;;;10.00;99.90;;;;;;5007267;28;20467;-66
2023/03/14 04:02:41;;;;;;;4.43;1.30;;;10.00;99.90;;;;;;5038188;28;20570;-69
2023/03/14 04:05:09;;;;;;;1.50;1.00;;;9.90;99.90;;;;;;5005614;28;20976;-70
2023/03/14 04:07:35;;;;;;;3.63;1.30;;;9.90;99.90;;;;;;5022015;28;20833;-71
2023/03/14 04:10:01;;;;;;;4.23;0.80;;;9.90;99.90;;;;;;5025759;28;20902;-71
2023/03/14 04:12:37;;;;;;;1.37;1.00;;;9.90;99.90;;;;;;5021886;28;20489;-70
2023/03/14 04:15:07;;;;;;;3.60;1.03;;;9.90;99.90;;;;;;5004966;28;20498;-70
2023/03/14 04:17:34;;;;;;;1.03;0.90;;;9.90;99.90;;;;;;5020152;28;20895;-70
2023/03/14 04:20:00;;;;;;;4.10;1.40;;;9.90;99.90;;;;;;5019690;28;20470;-71
2023/03/14 04:22:33;;;;;;;3.70;1.27;;;9.90;99.90;;;;;;5020187;28;20223;-70
2023/03/14 04:25:02;;;;;;;1.47;0.90;;;9.90;99.90;;;;;;5025525;28;20474;-71
2023/03/14 04:27:28;;;;;;;1.70;1.30;;;9.90;99.90;;;;;;5020848;28;20485;-70
2023/03/14 04:29:55;;;;;;;1.00;0.70;;;9.90;99.90;;;;;;5005119;28;20462;-70
2023/03/14 04:32:34;;;;;;;1.20;1.00;;;9.90;99.90;;;;;;5001217;28;20462;-70
2023/03/14 04:34:59;;;;;;;1.57;1.20;;;9.90;99.90;;;;;;5017099;28;20476;-70
2023/03/14 04:37:25;;;;;;;2.87;1.00;;;9.90;99.90;;;;;;5004996;28;20215;-70
2023/03/14 04:39:51;;;;;;;2.00;0.70;;;9.90;99.90;;;;;;5017181;28;20590;-70
2023/03/14 04:42:24;;;;;;;0.73;0.73;;;9.90;99.90;;;;;;5006676;28;20221;-70
2023/03/14 04:44:50;;;;;;;0.97;0.80;;;9.90;99.90;;;;;;5020107;28;20539;-71
2023/03/14 04:47:17;;;;;;;2.70;0.70;;;9.90;99.90;;;;;;5023848;28;20235;-70
2023/03/14 04:49:44;;;;;;;1.43;0.60;;;10.00;99.90;;;;;;5005379;28;20548;-71
2023/03/14 04:52:13;;;;;;;1.67;0.93;;;9.90;99.90;;;;;;5018568;28;20471;-70
2023/03/14 04:54:38;;;;;;;2.13;1.10;;;9.90;99.90;;;;;;5005025;28;20832;-71
2023/03/14 04:57:04;;;;;;;3.60;0.80;;;9.90;99.90;;;;;;5009576;28;20216;-70
2023/03/14 04:59:33;;;;;;;1.30;0.97;;;9.80;99.90;;;;;;5020781;28;20224;-70
2023/03/14 05:02:07;;;;;;;6.30;1.10;;;9.90;99.90;;;;;;5006204;28;20485;-71
2023/03/14 05:04:41;;;;;;;1.60;0.67;;;9.90;99.90;;;;;;5015898;28;20552;-69
2023/03/14 05:07:16;;;;;;;1.30;0.87;;;9.90;99.90;;;;;;5004309;28;20463;-70
2023/03/14 05:10:00;;;;;;;2.63;1.20;;;9.90;99.90;;;;;;5028362;28;20470;-71
2023/03/14 05:13:04;;;;;;;1.00;0.70;;;9.90;99.90;;;;;;5005778;28;20477;-70
2023/03/14 05:15:50;;;;;;;1.93;0.60;;;9.90;99.90;;;;;;5023990;28;20493;-71
2023/03/14 05:18:37;;;;;;;2.33;0.93;;;9.80;99.90;;;;;;5020015;28;20469;-71
2023/03/14 05:21:12;;;;;;;2.60;0.83;;;9.80;99.90;;;;;;5016536;28;20462;-70
2023/03/14 05:24:06;;;;;;;3.53;0.80;;;9.80;99.90;;;;;;4975437;28;20477;-71
2023/03/14 05:26:53;;;;;;;2.80;1.10;;;9.80;99.90;;;;;;5010499;28;20484;-71
2023/03/14 05:29:28;;;;;;;1.40;0.83;;;9.70;99.90;;;;;;5005314;28;21065;-71
2023/03/14 05:32:05;;;;;;;1.83;0.53;;;9.70;99.90;;;;;;5016269;28;20470;-71
2023/03/14 05:34:59;;;;;;;1.00;0.70;;;9.80;99.90;;;;;;4960028;28;20463;-71
2023/03/14 05:37:39;;;;;;;1.30;0.83;;;9.70;99.90;;;;;;5017266;28;20493;-70
2023/03/14 05:40:17;;;;;;;1.60;0.90;;;9.70;99.90;;;;;;5023424;28;20488;-71
2023/03/14 05:42:58;;;;;;;0.80;0.70;;;9.60;99.90;;;;;;5022829;28;20593;-71
2023/03/14 05:45:46;;;;;;;1.67;0.70;;;9.70;99.90;;;;;;5023206;28;20486;-70
2023/03/14 05:48:34;;;;;;;0.97;0.50;;;9.70;99.90;;;;;;5031820;28;20521;-70
2023/03/14 05:51:09;;;;;;;0.63;0.60;;;9.70;99.90;;;;;;5010198;28;20450;-70
2023/03/14 05:53:53;;;;;;;1.60;0.70;;;9.60;99.90;;;;;;5039710;28;20567;-70
2023/03/14 05:56:32;;;;;;;0.83;0.83;;;9.60;99.90;;;;;;5019554;28;20478;-70
2023/03/14 05:59:08;;;;;;;3.63;0.90;;;9.60;99.90;;;;;;5048250;28;20552;-70
2023/03/14 06:01:49;;;;;;;0.80;0.73;;;9.60;99.90;;;;;;5010048;28;20471;-69
2023/03/14 06:04:19;;;;;;;1.20;0.90;;;9.70;99.90;;;;;;5015088;28;20483;-70
2023/03/14 06:06:49;;;;;;;1.30;1.00;;;9.70;99.90;;;;;;5011436;28;20476;-69
2023/03/14 06:09:16;;;;;;;0.90;0.60;;;9.70;99.90;;;;;;5004825;28;20459;-69
2023/03/14 06:11:42;;;;;;;0.87;0.87;;;9.70;99.90;;;;;;5014634;28;21000;-69
2023/03/14 06:14:08;;;;;;;3.47;0.83;;;9.80;99.90;;;;;;5002981;28;20462;-69
2023/03/14 06:16:37;;;;;;;1.27;0.70;;;9.70;99.90;;;;;;5017138;28;20251;-69
2023/03/14 06:19:03;;;;;;;1.00;0.73;;;9.70;99.90;;;;;;5033706;28;20497;-71
2023/03/14 06:21:30;;;;;;;1.07;0.90;;;9.70;99.90;;;;;;5020829;28;20643;-71
2023/03/14 06:23:56;;;;;;;4.97;1.20;;;9.80;99.90;;;;;;5056464;28;20224;-71
2023/03/14 06:26:23;;;;;;;1.10;1.00;;;9.70;99.90;;;;;;5007946;28;21081;-70
2023/03/14 06:28:50;;;;;;;1.40;1.23;;;9.70;99.90;;;;;;4997344;28;20460;-72
2023/03/14 06:31:16;;;;;;;1.00;0.83;;;9.70;99.90;;;;;;5020444;28;20463;-70
2023/03/14 06:33:51;;;;;;;1.33;1.23;;;9.70;99.90;;;;;;5009546;28;20948;-71
2023/03/14 06:36:17;;;;;;;1.00;1.00;;;9.80;99.90;;;;;;5019582;28;20454;-71
2023/03/14 06:38:45;;;;;;;1.03;0.93;;;9.80;99.90;;;;;;4992039;28;20494;-71
2023/03/14 06:41:12;;;;;;;3.90;0.80;;;9.80;99.90;;;;;;5014091;28;20453;-71
2023/03/14 06:43:40;;;;;;;1.83;1.03;;;9.80;99.90;;;;;;5019159;28;20450;-71
2023/03/14 06:46:07;;;;;;;1.60;1.10;;;9.80;99.90;;;;;;5007594;28;20548;-70
2023/03/14 06:48:35;;;;;;;1.43;0.90;;;9.80;99.90;;;;;;5032907;28;20467;-71
2023/03/14 06:51:01;;;;;;;0.77;0.77;;;9.80;99.90;;;;;;5023673;28;20469;-71
2023/03/14 06:53:26;;;;;;;0.80;0.80;;;9.80;99.90;;;;;;5006641;28;20532;-71
2023/03/14 06:55:52;;;;;;;2.67;1.00;;;9.80;99.90;;;;;;5030342;28;20220;-70
2023/03/14 06:58:19;;;;;;;2.63;1.27;;;9.90;99.90;;;;;;5020875;28;20212;-71
2023/03/14 07:00:45;;;;;;;0.90;0.90;;;9.90;99.90;;;;;;5017702;28;20549;-70
2023/03/14 07:03:14;;;;;;;1.27;0.73;;;9.90;99.90;;;;;;4995624;28;20467;-70
2023/03/14 07:05:43;;;;;;;2.00;1.07;;;9.90;99.90;;;;;;5020064;28;20462;-70
2023/03/14 07:08:09;;;;;;;1.53;1.20;;;9.90;99.90;;;;;;4994766;28;20483;-70
2023/03/14 07:10:35;;;;;;;1.17;0.97;;;9.90;99.90;;;;;;5008758;28;20656;-72
2023/03/14 07:13:01;;;;;;;2.40;1.10;;;9.90;99.90;;;;;;4999675;28;20232;-71
2023/03/14 07:15:30;;;;;;;2.17;1.23;;;9.90;99.90;;;;;;4991217;28;20260;-70
2023/03/14 07:18:01;;;;;;;3.00;1.33;;;9.90;99.90;;;;;;5024846;28;20546;-71
2023/03/14 07:20:28;;;;;;;3.27;1.67;;;9.90;99.90;;;;;;5016577;28;20465;-71
2023/03/14 07:22:54;;;;;;;2.53;1.17;;;9.90;99.90;;;;;;5005061;28;20830;-71
2023/03/14 07:25:30;;;;;;;1.80;1.20;;;9.90;99.90;;;;;;5001543;28;20538;-71
2023/03/14 07:27:56;;;;;;;1.23;1.00;;;9.90;99.90;;;;;;5008274;28;20543;-70
2023/03/14 07:30:21;;;;;;;3.97;1.30;;;9.90;99.90;;;;;;5023655;28;20213;-70
2023/03/14 07:32:48;;;;;;;3.47;1.17;;;9.90;99.90;;;;;;5011505;28;20219;-70
2023/03/14 07:35:14;;;;;;;1.40;1.23;;;9.90;99.90;;;;;;5022370;28;21047;-71
2023/03/14 07:37:41;;;;;;;4.00;1.30;;;10.00;99.90;;;;;;5021720;28;20212;-70
2023/03/14 07:40:07;;;;;;;2.77;1.23;;;10.00;99.90;;;;;;5010813;28;20540;-70
2023/03/14 07:42:34;;;;;;;2.30;1.27;;;10.00;99.90;;;;;;5023033;28;20215;-71
2023/03/14 07:45:24;;;;;;;1.77;1.57;;;10.10;99.90;;;;;;5026713;28;20493;-70
2023/03/14 07:47:49;;;;;;;1.00;0.97;;;10.20;99.90;;;;;;5004361;28;20509;-70
2023/03/14 07:50:15;;;;;;;1.47;1.37;;;10.20;99.90;;;;;;5010468;28;20471;-70
2023/03/14 07:52:41;;;;;;;1.00;0.90;;;10.30;99.90;;;;;;5020373;28;20402;-70
2023/03/14 07:55:07;;;;;;;1.33;1.23;;;10.30;99.90;;;;;;5023308;28;20964;-70
2023/03/14 07:57:33;;;;;;;4.27;1.57;;;10.40;99.90;;;;;;5036675;28;20681;-71
2023/03/14 07:59:58;;;;;;;4.10;2.00;;;10.50;99.90;;;;;;5007388;28;20459;-71
2023/03/14 08:02:24;;;;;;;2.20;1.50;;;10.60;99.90;;;;;;5022808;28;20227;-70
2023/03/14 08:04:50;;;;;;;1.77;1.50;;;10.60;99.90;;;;;;5017128;28;20226;-71
2023/03/14 08:07:16;;;;;;;2.00;1.77;;;10.60;99.90;;;;;;5008874;28;20221;-70
2023/03/14 08:09:42;;;;;;;3.60;1.90;;;10.60;99.90;;;;;;5032209;28;20850;-71
2023/03/14 08:12:08;;;;;;;2.30;2.10;;;10.60;99.90;;;;;;5037149;28;20216;-71
2023/03/14 08:14:34;;;;;;;2.40;2.17;;;10.70;99.90;;;;;;5019049;28;20261;-71
2023/03/14 08:16:59;;;;;;;1.93;1.83;;;10.80;99.90;;;;;;5020073;28;20221;-71
2023/03/14 08:19:25;;;;;;;2.30;2.10;;;10.80;99.90;;;;;;5019053;28;20474;-71
2023/03/14 08:21:51;;;;;;;1.77;1.67;;;10.80;99.90;;;;;;5015808;28;20251;-69
2023/03/14 08:24:16;;;;;;;2.87;1.83;;;10.80;99.90;;;;;;5038711;28;20223;-71
2023/03/14 08:26:42;;;;;;;3.07;1.93;;;10.90;99.90;;;;;;5004690;28;20238;-70
2023/03/14 08:29:08;;;;;;;2.63;2.17;;;10.90;99.90;;;;;;5024891;28;20208;-71
2023/03/14 08:31:36;;;;;;;1.67;1.57;;;10.90;99.90;;;;;;5002115;28;20330;-71
2023/03/14 08:34:02;;;;;;;3.03;1.77;;;10.90;99.90;;;;;;5023419;28;20234;-71
2023/03/14 08:36:28;;;;;;;2.40;2.20;;;10.90;99.90;;;;;;5010923;28;20489;-71
2023/03/14 08:38:54;;;;;;;2.60;2.40;;;10.90;99.90;;;;;;5015813;28;20455;-71
2023/03/14 08:41:20;;;;;;;2.53;2.30;;;10.90;99.90;;;;;;5000834;28;20475;-71
2023/03/14 08:43:46;;;;;;;4.60;2.27;;;10.90;99.90;;;;;;5009576;28;20219;-71
2023/03/14 08:46:11;;;;;;;2.40;2.20;;;10.90;99.90;;;;;;5020174;28;20216;-71
2023/03/14 08:48:37;;;;;;;1.93;1.83;;;11.00;99.90;;;;;;5012289;28;20210;-71
2023/03/14 08:51:12;;;;;;;2.23;1.80;;;10.90;99.90;;;;;;5024179;28;20278;-71
2023/03/14 08:53:38;;;;;;;1.80;1.70;;;11.00;99.90;;;;;;5036658;28;20216;-71
2023/03/14 08:56:05;;;;;;;3.30;2.00;;;11.00;99.90;;;;;;5002864;28;20461;-70
2023/03/14 08:58:36;;;;;;;2.03;1.90;;;11.00;99.90;;;;;;5010439;28;20466;-71
2023/03/14 09:01:02;;;;;;;1.70;1.60;;;10.90;99.90;;;;;;5016678;28;20480;-71
2023/03/14 09:03:28;;;;;;;1.70;1.60;;;10.90;99.90;;;;;;5006593;28;20462;-71
2023/03/14 09:05:54;;;;;;;2.20;2.00;;;10.90;99.90;;;;;;5001210;28;20263;-71
2023/03/14 09:08:19;;;;;;;1.80;1.70;;;10.90;99.90;;;;;;5000801;28;21015;-70
2023/03/14 09:10:45;;;;;;;5.00;2.70;;;10.90;99.90;;;;;;5017404;28;20301;-71
2023/03/14 09:13:11;;;;;;;2.40;2.20;;;10.90;99.90;;;;;;5020612;28;20221;-72
2023/03/14 09:15:36;;;;;;;2.63;2.00;;;10.90;99.90;;;;;;5009973;28;20255;-71
2023/03/14 09:18:02;;;;;;;2.43;2.17;;;10.90;99.90;;;;;;5030174;28;20219;-71
2023/03/14 09:20:28;;;;;;;2.53;2.33;;;10.90;99.90;;;;;;5017966;28;20633;-71
2023/03/14 09:22:53;;;;;;;2.80;2.43;;;10.90;99.90;;;;;;5018479;28;20311;-70
2023/03/14 09:25:19;;;;;;;2.03;1.93;;;11.00;99.90;;;;;;5007445;28;20725;-71
2023/03/14 09:27:45;;;;;;;3.00;2.27;;;11.00;99.90;;;;;;5034270;28;20217;-71
2023/03/14 09:30:11;;;;;;;2.00;1.90;;;11.10;99.90;;;;;;5023701;28;20266;-71
2023/03/14 09:32:37;;;;;;;3.83;2.60;;;11.10;99.90;;;;;;5016474;28;20215;-71
2023/03/14 09:35:03;;;;;;;1.80;1.70;;;11.10;99.90;;;;;;5004927;28;20455;-71
2023/03/14 09:37:29;;;;;;;2.23;2.03;;;11.20;99.90;;;;;;5015266;28;20518;-71
2023/03/14 09:39:54;;;;;;;2.20;1.53;;;11.30;99.90;;;;;;5023836;28;20221;-71
2023/03/14 09:42:25;;;;;;;1.60;1.50;;;11.40;99.90;;;;;;5021505;28;20218;-71
2023/03/14 09:44:54;;;;;;;2.57;2.37;;;11.50;99.90;;;;;;5031901;28;20224;-72
2023/03/14 09:47:21;;;;;;;1.30;1.30;;;11.50;99.90;;;;;;5018207;28;20505;-71
2023/03/14 09:49:47;;;;;;;1.67;1.57;;;11.60;99.90;;;;;;5017227;28;20464;-71
2023/03/14 09:52:26;;;;;;;2.47;2.27;;;11.60;99.90;;;;;;5023001;28;20478;-71
2023/03/14 09:54:56;;;;;;;3.73;1.77;;;11.60;99.90;;;;;;5033336;28;20217;-71
2023/03/14 09:57:25;;;;;;;1.70;1.60;;;11.70;99.90;;;;;;5017896;28;20572;-71
2023/03/14 09:59:54;;;;;;;1.80;1.70;;;11.70;99.90;;;;;;5000721;28;20447;-72
2023/03/14 10:02:28;;;;;;;1.63;1.53;;;11.80;99.90;;;;;;5019351;28;20466;-71
2023/03/14 10:04:54;;;;;;;2.83;1.60;;;11.70;99.90;;;;;;5001938;28;20495;-71
2023/03/14 10:07:31;;;;;;;1.30;1.20;;;11.70;99.90;;;;;;5016184;28;20504;-71
2023/03/14 10:09:58;;;;;;;1.37;1.27;;;11.70;99.90;;;;;;4991367;28;20236;-72
2023/03/14 10:12:34;;;;;;;1.50;1.40;;;11.80;99.90;;;;;;4999435;28;20463;-70
2023/03/14 10:15:10;;;;;;;1.10;1.10;;;11.80;99.90;;;;;;5034703;28;20463;-71
2023/03/14 10:17:46;;;;;;;1.20;1.10;;;11.80;99.90;;;;;;5028763;28;20517;-71
2023/03/14 10:20:32;;;;;;;1.23;1.20;;;11.80;99.90;;;;;;5035114;28;20464;-71
2023/03/14 10:23:12;;;;;;;1.70;1.60;;;11.80;99.90;;;;;;5013796;28;20546;-71
2023/03/14 10:25:44;;;;;;;3.60;3.30;;;11.80;99.90;;;;;;4997187;28;20511;-71
2023/03/14 10:28:31;;;;;;;2.70;2.50;;;11.80;99.90;;;;;;5020420;28;20596;-71
2023/03/14 10:30:58;;;;;;;1.67;1.50;;;11.80;99.90;;;;;;5021606;28;20464;-71
2023/03/14 10:33:30;;;;;;;1.30;1.20;;;11.70;99.90;;;;;;5023320;28;20463;-70
2023/03/14 10:36:00;;;;;;;2.73;1.00;;;11.70;99.90;;;;;;4997483;28;20530;-71
2023/03/14 10:38:31;;;;;;;1.60;1.50;;;11.80;99.90;;;;;;5007255;28;20469;-71
2023/03/14 10:40:58;;;;;;;3.67;2.93;;;11.70;99.90;;;;;;5005650;28;20951;-71
2023/03/14 10:43:30;;;;;;;5.60;5.10;;;11.70;99.90;;;;;;5007238;28;20482;-70
2023/03/14 10:45:59;;;;;;;2.67;2.47;;;11.70;99.90;;;;;;5030252;28;20460;-71
2023/03/14 10:48:30;;;;;;;3.17;2.97;;;11.70;99.90;;;;;;5004290;28;20478;-69
2023/03/14 10:51:11;;;;;;;3.77;3.47;;;11.70;99.90;;;;;;5045024;28;20525;-72
2023/03/14 10:53:44;;;;;;;2.70;2.50;;;11.70;99.90;;;;;;5024027;28;20463;-71
2023/03/14 10:56:20;;;;;;;1.63;1.50;;;11.70;99.90;;;;;;5018497;28;20558;-70
2023/03/14 10:58:50;;;;;;;1.70;1.20;;;11.60;99.90;;;;;;5009377;28;20459;-71
2023/03/14 11:01:25;;;;;;;3.37;3.07;;;11.60;99.90;;;;;;5014973;28;20540;-71
2023/03/14 11:03:57;;;;;;;3.90;3.60;;;11.60;99.90;;;;;;5035740;28;20535;-71
2023/03/14 11:06:38;;;;;;;2.17;2.07;;;11.60;99.90;;;;;;5026617;28;20987;-70
2023/03/14 11:09:29;;;;;;;1.33;1.30;;;11.60;99.90;;;;;;5031436;28;20838;-71
2023/03/14 11:12:01;;;;;;;1.70;1.60;;;11.60;99.90;;;;;;5027911;28;20558;-70
2023/03/14 11:14:43;;;;;;;0.77;0.77;;;11.60;99.90;;;;;;5019512;28;20955;-71
2023/03/14 11:17:45;;;;;;;9.07;7.80;;;11.60;99.90;;;;;;5017548;28;20820;-69
2023/03/14 11:20:26;;;;;;;3.63;3.43;;;11.60;99.90;;;;;;4948272;28;20459;-71
2023/03/14 11:23:08;;;;;;;1.83;1.40;;;11.60;99.90;;;;;;5021171;28;20563;-71
2023/03/14 11:25:45;;;;;;;1.20;1.10;;;11.60;99.90;;;;;;5028135;28;20459;-70
2023/03/14 11:28:20;;;;;;;1.27;1.10;;;11.60;99.90;;;;;;5041559;28;20472;-67
2023/03/14 11:30:52;;;;;;;3.50;2.30;;;11.60;99.90;;;;;;5024707;28;20915;-70
2023/03/14 11:33:24;;;;;;;1.40;1.20;;;11.50;99.90;;;;;;5023768;28;20486;-71
2023/03/14 11:36:05;;;;;;;1.23;0.70;;;11.40;99.90;;;;;;5042628;28;20463;-70
2023/03/14 11:38:40;;;;;;;0.60;0.60;;;11.50;99.90;;;;;;5033422;28;20503;-71
2023/03/14 11:41:14;;;;;;;0.40;0.40;;;11.50;99.90;;;;;;5021258;28;20461;-71
2023/03/14 11:43:42;;;;;;;1.30;1.20;;;11.50;99.90;;;;;;5040818;28;20466;-70
2023/03/14 11:46:23;;;;;;;3.10;2.90;;;11.50;99.90;;;;;;5041086;28;20510;-69
2023/03/14 11:48:48;;;;;;;2.17;2.07;;;11.50;99.90;;;;;;5014409;28;20466;-71
2023/03/14 11:51:24;;;;;;;1.03;1.03;;;11.40;99.90;;;;;;5026522;28;20459;-70
2023/03/14 11:54:15;;;;;;;0.70;0.60;;;11.40;99.90;;;;;;4995390;28;20671;-71
2023/03/14 11:56:47;;;;;;;0.40;0.30;;;11.40;99.90;;;;;;5017315;28;20525;-71
2023/03/14 11:59:45;;;;;;;0.40;0.30;;;11.40;99.90;;;;;;5020599;28;20461;-69
2023/03/14 12:02:41;;;;;;;0.40;0.30;;;11.40;99.90;;;;;;5002578;28;20525;-71
2023/03/14 12:05:31;;;;;;;0.40;0.40;;;11.30;99.90;;;;;;5021602;28;20884;-69
2023/03/14 12:08:29;;;;;;;0.50;0.43;;;11.30;99.90;;;;;;5015371;28;21045;-70
2023/03/14 12:11:00;;;;;;;0.40;0.30;;;11.30;99.90;;;;;;5030374;28;20477;-71
2023/03/14 12:13:36;;;;;;;0.40;0.30;;;11.40;99.90;;;;;;5014041;28;20455;-70
2023/03/14 12:16:06;;;;;;;0.40;0.30;;;11.40;99.90;;;;;;5039273;28;20889;-71
2023/03/14 12:18:37;;;;;;;0.40;0.30;;;11.40;99.90;;;;;;5002623;28;20471;-71
2023/03/14 12:21:09;;;;;;;0.50;0.40;;;11.40;99.90;;;;;;5024224;28;20455;-70
2023/03/14 12:23:42;;;;;;;0.50;0.37;;;11.40;99.90;;;;;;5018864;28;20761;-71
2023/03/14 12:26:10;;;;;;;0.30;0.30;;;11.30;99.90;;;;;;5021975;28;20825;-68
2023/03/14 12:28:37;;;;;;;0.50;0.40;;;11.30;99.90;;;;;;5001857;28;20525;-71
2023/03/14 12:31:28;;;;;;;1.70;0.50;;;11.30;99.90;;;;;;5040858;28;20990;-71
2023/03/14 12:34:27;;;;;;;0.40;0.40;;;11.30;99.90;;;;;;5016490;28;20542;-71
2023/03/14 12:37:33;;;;;;;0.40;0.40;;;11.20;99.90;;;;;;5022157;28;20478;-71
2023/03/14 12:40:06;;;;;;;0.40;0.33;;;11.00;99.90;;;;;;5021277;28;20519;-71
2023/03/14 12:42:44;;;;;;;0.40;0.40;;;11.10;99.90;;;;;;4996641;28;20492;-71
2023/03/14 12:45:23;;;;;;;0.57;0.43;;;11.00;99.90;;;;;;5039369;28;20466;-70
2023/03/14 12:48:10;;;;;;;1.87;1.33;;;10.90;99.90;;;;;;5011465;28;20464;-70
2023/03/14 12:50:52;;;;;;;4.50;3.37;;;10.60;99.90;;;;;;5004657;28;20561;-71
2023/03/14 12:53:55;;;;;;;11.97;6.60;;;10.50;99.90;;;;;;5016479;28;20843;-70
2023/03/14 12:56:25;;;;;;;2.70;1.87;;;10.50;99.90;;;;;;5023162;28;20509;-70
2023/03/14 12:59:03;;;;;;;1.37;1.27;;;10.60;99.90;;;;;;5032417;28;20459;-69
2023/03/14 13:01:29;;;;;;;3.27;2.57;;;10.60;99.90;;;;;;5004604;28;21310;-71
2023/03/14 13:03:57;;;;;;;3.07;2.20;;;10.50;99.90;;;;;;5023870;28;20466;-71
2023/03/14 13:06:53;;;;;;;2.53;2.33;;;10.40;99.90;;;;;;4995533;28;20224;-70
2023/03/14 13:09:30;;;;;;;4.03;2.33;;;10.30;99.90;;;;;;5010542;28;20565;-70
2023/03/14 13:12:01;;;;;;;9.20;5.30;;;10.40;99.90;;;;;;5015590;28;20559;-71